Havana, Texas
Current Conditions -  °F | °C
As of 1:53 PM on Friday 31 Oct 2014 (Local Time) from KMFE Reporting Station
Scattered Clouds Scattered Clouds  
Wind Chill: 79°   Ceiling: Unl
Heat Index: 81°   Visibility: 10mi
Dew Point: 65°   Wind: 18mph
Humidity: 62%   Direction: 30°NNE
Pressure: 30.16"   Gusts: 26mph
Location:  26.2167°N, 98.325°W
Report Text: KMFE 311853Z 03016G23KT 10SM SCT060 SCT090 26/18 A3016 RMK AO2 SLP212 T02610183
Loading
Personal Weather Stations






























Interactive Weather Map
Tropical Storm Tracking
New forecast layout! Learn more

10-Day Weather Forecast

Advertisements
Track Severe Weather on mobile